createdAt,value
2023-04-29T00:01:06.212Z,101121.59
2023-04-29T00:03:33.192Z,101111.91
2023-04-29T00:06:00.742Z,101113.28
2023-04-29T00:08:27.980Z,101111.41
2023-04-29T00:10:54.768Z,101116.56
2023-04-29T00:13:21.667Z,101107.25
2023-04-29T00:15:48.485Z,101084.25
2023-04-29T00:18:15.190Z,101110.69
2023-04-29T00:20:42.434Z,101123.91
2023-04-29T00:23:09.282Z,101118.78
2023-04-29T00:25:36.273Z,101124.03
2023-04-29T00:28:03.575Z,101073.94
2023-04-29T00:30:31.274Z,101106.28
2023-04-29T00:32:57.860Z,101126.13
2023-04-29T00:35:24.461Z,101120.00
2023-04-29T00:37:51.002Z,101115.59
2023-04-29T00:40:17.751Z,101132.47
2023-04-29T00:42:44.391Z,101080.06
2023-04-29T00:45:11.748Z,101137.03
2023-04-29T00:47:38.910Z,101135.31
2023-04-29T00:53:14.893Z,101153.56
2023-04-29T00:55:45.287Z,101146.09
2023-04-29T00:58:12.398Z,101151.34
2023-04-29T01:00:39.357Z,101153.53
2023-04-29T01:03:06.561Z,101155.75
2023-04-29T01:05:33.976Z,101170.47
2023-04-29T01:08:18.306Z,101163.84
2023-04-29T01:10:53.261Z,101155.88
2023-04-29T01:13:35.219Z,101162.63
2023-04-29T01:16:11.473Z,101155.50
2023-04-29T01:18:50.758Z,101114.31
2023-04-29T01:21:18.275Z,101173.00
2023-04-29T01:23:45.936Z,101171.78
2023-04-29T01:26:12.807Z,101163.75
2023-04-29T01:29:02.475Z,101164.31
2023-04-29T01:31:38.997Z,101081.63
2023-04-29T01:34:13.894Z,101163.94
2023-04-29T01:36:56.036Z,101173.84
2023-04-29T01:39:33.383Z,101171.50
2023-04-29T01:42:15.155Z,101184.72
2023-04-29T01:44:43.773Z,101188.53
2023-04-29T01:47:14.209Z,101184.72
2023-04-29T01:49:41.060Z,101181.03
2023-04-29T01:52:07.661Z,101190.47
2023-04-29T01:54:36.958Z,101132.13
2023-04-29T01:57:03.777Z,101176.22
2023-04-29T01:59:31.691Z,101144.75
2023-04-29T02:01:59.093Z,101169.66
2023-04-29T02:04:26.186Z,101194.41
2023-04-29T02:06:53.054Z,101176.22
2023-04-29T02:09:19.837Z,101201.88
2023-04-29T02:11:46.387Z,101206.72
2023-04-29T02:14:12.952Z,101198.00
2023-04-29T02:16:39.554Z,101222.47
2023-04-29T02:19:06.364Z,101221.03
2023-04-29T02:21:32.994Z,101156.31
2023-04-29T02:23:59.519Z,101225.47
2023-04-29T02:26:26.060Z,101198.50
2023-04-29T02:28:52.737Z,101221.13
2023-04-29T02:31:19.336Z,101234.63
2023-04-29T02:33:45.998Z,101197.75
2023-04-29T02:36:12.711Z,101218.13
2023-04-29T02:38:39.240Z,101237.66
2023-04-29T02:41:05.935Z,101250.84
2023-04-29T02:43:32.642Z,101244.59
2023-04-29T02:46:00.414Z,101247.06
2023-04-29T02:48:27.227Z,101246.91
2023-04-29T02:50:53.761Z,101253.66
2023-04-29T02:53:21.121Z,101202.28
2023-04-29T02:55:48.558Z,101222.94
2023-04-29T02:58:15.208Z,101250.16
2023-04-29T03:00:42.397Z,101253.25
2023-04-29T03:03:09.121Z,101265.28
2023-04-29T03:05:35.989Z,101257.47
2023-04-29T03:08:04.310Z,101204.38
2023-04-29T03:10:31.341Z,101263.44
2023-04-29T03:12:57.999Z,101228.31
2023-04-29T03:15:24.556Z,101270.78
2023-04-29T03:17:51.215Z,101278.00
2023-04-29T03:20:17.950Z,101285.47
2023-04-29T03:22:44.563Z,101247.00
2023-04-29T03:25:11.209Z,101274.53
2023-04-29T03:27:37.806Z,101245.09
2023-04-29T03:30:04.896Z,101293.34
2023-04-29T03:32:31.444Z,101288.34
2023-04-29T03:34:58.036Z,101291.63
2023-04-29T03:37:24.603Z,101294.94
2023-04-29T03:39:51.399Z,101300.31
2023-04-29T03:42:18.276Z,101301.69
2023-04-29T03:44:45.067Z,101302.25
2023-04-29T03:47:11.784Z,101301.66
2023-04-29T03:49:38.688Z,101305.56
2023-04-29T03:52:05.409Z,101307.97
2023-04-29T03:54:32.125Z,101298.28
2023-04-29T03:56:58.736Z,101300.59
2023-04-29T03:59:25.312Z,101280.06
2023-04-29T04:01:54.364Z,101267.72
2023-04-29T04:04:22.135Z,101325.66
2023-04-29T04:06:52.108Z,101332.44
2023-04-29T04:09:18.885Z,101341.16
2023-04-29T04:11:46.004Z,101333.31
2023-04-29T04:14:13.215Z,101333.09
2023-04-29T04:16:39.955Z,101345.47
2023-04-29T04:19:06.674Z,101352.25
2023-04-29T04:21:33.399Z,101354.41
2023-04-29T04:23:59.978Z,101318.38
2023-04-29T04:26:26.547Z,101380.03
2023-04-29T04:28:53.113Z,101275.38
2023-04-29T04:31:19.784Z,101351.28
2023-04-29T04:33:46.465Z,101365.25
2023-04-29T04:36:13.585Z,101371.94
2023-04-29T04:38:40.233Z,101376.00
2023-04-29T04:41:08.285Z,101368.78
2023-04-29T04:43:34.887Z,101373.53
2023-04-29T04:46:09.666Z,101381.63
2023-04-29T04:48:36.261Z,101386.56
2023-04-29T04:51:13.199Z,101381.81
2023-04-29T04:53:41.109Z,101389.53
2023-04-29T04:56:08.602Z,101384.38
2023-04-29T04:58:35.289Z,101381.78
2023-04-29T05:01:02.761Z,101402.72
2023-04-29T05:03:29.713Z,101411.66
2023-04-29T05:05:57.652Z,101319.25
2023-04-29T05:08:24.827Z,101415.41
2023-04-29T05:10:51.760Z,101364.97
2023-04-29T05:13:18.757Z,101375.16
2023-04-29T05:15:45.947Z,101424.38
2023-04-29T05:18:12.674Z,101428.78
2023-04-29T05:20:39.262Z,101373.22
2023-04-29T05:23:05.879Z,101422.72
2023-04-29T05:25:32.476Z,101431.69
2023-04-29T05:27:59.031Z,101431.28
2023-04-29T05:30:25.918Z,101436.84
2023-04-29T05:32:52.541Z,101427.03
2023-04-29T05:35:19.143Z,101434.38
2023-04-29T05:37:45.904Z,101437.69
2023-04-29T05:40:12.845Z,101440.38
2023-04-29T05:42:39.434Z,101426.81
2023-04-29T05:45:06.601Z,101438.13
2023-04-29T05:47:33.214Z,101437.19
2023-04-29T05:49:59.860Z,101436.44
2023-04-29T05:52:26.557Z,101441.78
2023-04-29T05:54:53.322Z,101436.94
2023-04-29T05:57:19.919Z,101406.78
2023-04-29T05:59:46.665Z,101444.25
2023-04-29T06:02:13.299Z,101443.69
2023-04-29T06:04:41.914Z,101452.84
2023-04-29T06:07:09.439Z,101450.88
2023-04-29T06:09:36.773Z,101407.91
2023-04-29T06:12:03.689Z,101459.38
2023-04-29T06:14:30.346Z,101453.44
2023-04-29T06:16:56.981Z,101461.38
2023-04-29T06:19:25.218Z,101445.00
2023-04-29T06:21:52.118Z,101458.81
2023-04-29T06:24:18.744Z,101461.94
2023-04-29T06:26:45.304Z,101465.38
2023-04-29T06:29:12.433Z,101459.75
2023-04-29T06:31:39.103Z,101474.19
2023-04-29T06:34:05.744Z,101471.03
2023-04-29T06:36:32.567Z,101467.66
2023-04-29T06:38:59.550Z,101426.91
2023-04-29T06:41:27.033Z,101473.53
2023-04-29T06:43:53.664Z,101445.56
2023-04-29T06:46:20.301Z,101282.97
2023-04-29T06:48:46.866Z,101465.03
2023-04-29T06:51:13.562Z,101477.56
2023-04-29T06:53:40.180Z,101486.41
2023-04-29T06:56:07.419Z,101420.81
2023-04-29T06:58:33.989Z,101405.81
2023-04-29T07:01:00.671Z,101463.81
2023-04-29T07:03:27.583Z,101398.91
2023-04-29T07:05:54.221Z,101474.78
2023-04-29T07:08:21.090Z,101464.41
2023-04-29T07:10:59.110Z,101477.25
2023-04-29T07:13:26.774Z,101484.00
2023-04-29T07:15:53.745Z,101481.69
2023-04-29T07:18:20.308Z,101487.22
2023-04-29T07:20:48.190Z,101486.47
2023-04-29T07:23:15.360Z,101478.25
2023-04-29T07:25:42.011Z,101467.69
2023-04-29T07:28:09.316Z,101444.97
2023-04-29T07:30:36.602Z,101449.13
2023-04-29T07:33:04.650Z,101482.41
2023-04-29T07:35:31.845Z,101485.75
2023-04-29T07:37:58.512Z,101481.69
2023-04-29T07:40:25.154Z,101482.94
2023-04-29T07:42:51.941Z,101442.16
2023-04-29T07:45:18.576Z,101459.38
2023-04-29T07:47:46.055Z,101431.09
2023-04-29T07:50:12.915Z,101411.84
2023-04-29T07:52:39.572Z,101491.38
2023-04-29T07:55:06.501Z,101492.22
2023-04-29T07:57:33.096Z,101478.81
2023-04-29T07:59:59.908Z,101491.19
2023-04-29T08:02:26.658Z,101483.34
2023-04-29T08:04:55.124Z,101427.16
2023-04-29T08:07:22.371Z,101511.63
2023-04-29T08:09:49.051Z,101508.22
2023-04-29T08:12:15.813Z,101489.84
2023-04-29T08:14:42.625Z,101348.13
2023-04-29T08:17:09.201Z,101513.16
2023-04-29T08:19:36.100Z,101517.22
2023-04-29T08:22:04.521Z,101515.44
2023-04-29T08:24:31.326Z,101508.53
2023-04-29T08:26:59.125Z,101527.63
2023-04-29T08:29:25.763Z,101504.72
2023-04-29T08:31:52.382Z,101532.63
2023-04-29T08:34:18.992Z,101524.91
2023-04-29T08:36:45.812Z,101545.06
2023-04-29T08:39:12.352Z,101532.69
2023-04-29T08:41:39.524Z,101550.09
2023-04-29T08:44:06.282Z,101510.94
2023-04-29T08:46:33.269Z,101531.06
2023-04-29T08:49:03.097Z,101554.38
2023-04-29T08:51:32.252Z,101541.16
2023-04-29T08:53:59.378Z,101509.59
2023-04-29T08:56:28.143Z,101562.44
2023-04-29T08:58:58.300Z,101496.06
2023-04-29T09:01:29.829Z,101563.16
2023-04-29T09:04:25.197Z,101563.84
2023-04-29T09:06:53.078Z,101561.78
2023-04-29T09:09:21.078Z,101558.50
2023-04-29T09:11:47.906Z,101561.53
2023-04-29T09:14:15.434Z,101557.47
2023-04-29T09:16:42.306Z,101560.13
2023-04-29T09:19:09.014Z,101563.41
2023-04-29T09:21:35.812Z,101536.56
2023-04-29T09:24:04.056Z,101529.78
2023-04-29T09:26:44.034Z,101555.13
2023-04-29T09:29:15.442Z,101576.91
2023-04-29T09:31:42.696Z,101580.94
2023-04-29T09:34:10.063Z,101569.41
2023-04-29T09:36:42.637Z,101574.84
2023-04-29T09:39:13.870Z,101571.25
2023-04-29T09:41:42.667Z,101541.31
2023-04-29T09:44:10.677Z,101579.09
2023-04-29T09:46:37.902Z,101571.69
2023-04-29T09:49:05.363Z,101545.34
2023-04-29T09:51:34.621Z,101565.97
2023-04-29T09:54:03.123Z,101572.38
2023-04-29T09:56:49.347Z,101565.06
2023-04-29T09:59:16.411Z,101576.81
2023-04-29T10:01:43.377Z,101557.66
2023-04-29T10:04:11.976Z,101539.97
2023-04-29T10:06:42.571Z,101584.81
2023-04-29T10:09:13.706Z,101586.31
2023-04-29T10:11:40.930Z,101575.69
2023-04-29T10:14:12.133Z,101550.91
2023-04-29T10:16:46.812Z,101568.06
2023-04-29T10:19:19.715Z,101572.16
2023-04-29T10:21:50.065Z,101557.94
2023-04-29T10:24:19.346Z,101571.25
2023-04-29T10:26:47.261Z,101535.56
2023-04-29T10:29:15.770Z,101577.75
2023-04-29T10:31:44.587Z,101496.19
2023-04-29T10:34:13.142Z,101592.13
2023-04-29T10:36:40.248Z,101563.69
2023-04-29T10:39:13.341Z,101561.09
2023-04-29T10:41:47.911Z,101588.88
2023-04-29T10:44:14.956Z,101591.47
2023-04-29T10:46:41.690Z,101597.31
2023-04-29T10:49:10.808Z,101586.69
2023-04-29T10:51:45.469Z,101557.00
2023-04-29T10:54:25.498Z,101594.50
2023-04-29T10:56:54.472Z,101586.00
2023-04-29T10:59:42.209Z,101588.22
2023-04-29T11:02:10.579Z,101586.97
2023-04-29T11:05:10.302Z,101590.13
2023-04-29T11:07:37.080Z,101574.72
2023-04-29T11:10:04.237Z,101541.81
2023-04-29T11:12:31.113Z,101586.56
2023-04-29T11:15:04.939Z,101585.69
2023-04-29T11:17:39.058Z,101552.47
2023-04-29T11:20:13.590Z,101591.88
2023-04-29T11:22:40.339Z,101593.34
2023-04-29T11:25:07.704Z,101524.03
2023-04-29T11:27:36.205Z,101590.81
2023-04-29T11:30:05.910Z,101563.00
2023-04-29T11:32:36.146Z,101589.88
2023-04-29T11:35:13.533Z,101540.69
2023-04-29T11:37:42.603Z,101595.84
2023-04-29T11:40:10.946Z,101592.88
2023-04-29T11:42:49.520Z,101556.66
2023-04-29T11:45:20.089Z,101574.53
2023-04-29T11:47:48.421Z,101579.50
2023-04-29T11:50:20.144Z,101602.94
2023-04-29T11:52:48.813Z,101584.91
2023-04-29T11:55:15.903Z,101580.66
2023-04-29T11:57:42.691Z,101606.16
2023-04-29T12:00:14.043Z,101601.47
2023-04-29T12:02:44.976Z,101576.91
2023-04-29T12:05:13.521Z,101594.38
2023-04-29T12:07:40.534Z,101572.34
2023-04-29T12:10:11.672Z,101602.25
2023-04-29T12:12:41.025Z,101592.66
2023-04-29T12:15:09.855Z,101605.91
2023-04-29T12:17:36.784Z,101587.16
2023-04-29T12:20:04.425Z,101612.06
2023-04-29T12:22:34.692Z,101556.91
2023-04-29T12:25:04.285Z,101599.34
2023-04-29T12:27:30.929Z,101569.75
2023-04-29T12:29:57.997Z,101610.34
2023-04-29T12:32:25.864Z,101607.44
2023-04-29T12:34:53.292Z,101618.81
2023-04-29T12:37:22.100Z,101598.22
2023-04-29T12:39:50.572Z,101604.72
2023-04-29T12:42:17.355Z,101597.47
2023-04-29T12:44:47.861Z,101613.25
2023-04-29T12:47:16.411Z,101599.22
2023-04-29T12:49:49.356Z,101601.91
2023-04-29T12:52:16.001Z,101591.19
2023-04-29T12:54:44.066Z,101575.66
2023-04-29T12:57:12.166Z,101586.84
2023-04-29T12:59:40.078Z,101595.09
2023-04-29T13:02:06.726Z,101603.94
2023-04-29T13:04:33.511Z,101606.50
2023-04-29T13:07:00.883Z,101601.06
2023-04-29T13:09:27.592Z,101596.25
2023-04-29T13:11:54.308Z,101553.16
2023-04-29T13:14:21.547Z,101596.09
2023-04-29T13:16:48.306Z,101609.41
2023-04-29T13:19:32.007Z,101604.38
2023-04-29T13:22:02.141Z,101602.59
2023-04-29T13:24:28.760Z,101616.56
2023-04-29T13:26:55.410Z,101613.91
2023-04-29T13:29:22.114Z,101558.41
2023-04-29T13:31:48.919Z,101616.50
2023-04-29T13:34:15.669Z,101608.16
2023-04-29T13:36:42.308Z,101611.53
2023-04-29T13:39:09.025Z,101618.31
2023-04-29T13:41:35.862Z,101617.03
2023-04-29T13:44:03.013Z,101616.72
2023-04-29T13:46:32.718Z,101617.09
2023-04-29T13:54:48.212Z,101629.94
2023-04-29T13:59:40.136Z,101621.63
2023-04-29T14:04:31.891Z,101619.50
2023-04-29T14:06:58.552Z,101629.81
2023-04-29T14:09:25.264Z,101630.44
2023-04-29T14:11:52.366Z,101574.38
2023-04-29T14:14:20.179Z,101640.31
2023-04-29T14:16:46.977Z,101643.19
2023-04-29T14:19:14.097Z,101644.09
2023-04-29T14:21:40.728Z,101651.41
2023-04-29T14:24:07.289Z,101527.94
2023-04-29T14:26:34.060Z,101622.78
2023-04-29T14:29:01.268Z,101656.72
2023-04-29T14:31:29.553Z,101595.84
2023-04-29T14:33:59.597Z,101635.81
2023-04-29T14:36:29.692Z,101657.69
2023-04-29T14:38:56.389Z,101659.13
2023-04-29T14:41:23.039Z,101650.81
2023-04-29T14:43:49.865Z,101666.34
2023-04-29T14:46:16.919Z,101671.50
2023-04-29T14:48:43.877Z,101680.78
2023-04-29T14:51:10.912Z,101679.16
2023-04-29T14:53:37.489Z,101654.13
2023-04-29T14:56:04.140Z,101683.75
2023-04-29T14:58:31.034Z,101667.19
2023-04-29T15:00:57.686Z,101696.16
2023-04-29T15:03:24.423Z,101699.84
2023-04-29T15:05:51.798Z,101700.22
2023-04-29T15:08:19.331Z,101665.56
2023-04-29T15:10:50.177Z,101706.41
2023-04-29T15:13:16.908Z,101649.53
2023-04-29T15:15:43.641Z,101693.53
2023-04-29T15:18:10.461Z,101710.34
2023-04-29T15:20:37.769Z,101701.13
2023-04-29T15:23:05.643Z,101695.75
2023-04-29T15:25:36.196Z,101674.56
2023-04-29T15:28:05.063Z,101716.44
2023-04-29T15:30:32.049Z,101724.34
2023-04-29T15:32:58.759Z,101717.03
2023-04-29T15:35:25.423Z,101718.03
2023-04-29T15:37:51.956Z,101724.78
2023-04-29T15:40:18.602Z,101735.41
2023-04-29T15:42:45.241Z,101730.59
2023-04-29T15:45:12.093Z,101726.66
2023-04-29T15:47:38.961Z,101681.13
2023-04-29T15:50:06.428Z,101732.19
2023-04-29T15:52:32.998Z,101733.41
2023-04-29T15:54:59.790Z,101744.28
2023-04-29T15:57:26.947Z,101736.28
2023-04-29T15:59:53.665Z,101745.34
2023-04-29T16:02:21.408Z,101747.13
2023-04-29T16:04:48.253Z,101693.81
2023-04-29T16:07:15.076Z,101726.84
2023-04-29T16:09:42.487Z,101755.22
2023-04-29T16:12:11.757Z,101605.13
2023-04-29T16:14:38.391Z,101766.22
2023-04-29T16:17:05.901Z,101718.75
2023-04-29T16:19:35.130Z,101705.19
2023-04-29T16:22:03.405Z,101703.22
2023-04-29T16:24:30.221Z,101704.75
2023-04-29T16:26:56.900Z,101715.72
2023-04-29T16:29:23.660Z,101781.69
2023-04-29T16:31:50.479Z,101770.41
2023-04-29T16:34:17.261Z,101764.69
2023-04-29T16:36:43.918Z,101767.75
2023-04-29T16:39:10.596Z,101773.91
2023-04-29T16:41:37.943Z,101776.50
2023-04-29T16:44:04.854Z,101778.66
2023-04-29T16:46:35.083Z,101736.88
2023-04-29T16:49:01.822Z,101770.66
2023-04-29T16:51:29.366Z,101796.53
2023-04-29T16:53:56.216Z,101786.16
2023-04-29T16:56:22.862Z,101799.03
2023-04-29T16:58:49.565Z,101785.91
2023-04-29T17:01:16.494Z,101705.66
2023-04-29T17:03:43.252Z,101808.41
2023-04-29T17:06:10.024Z,101807.88
2023-04-29T17:08:36.778Z,101798.28
2023-04-29T17:11:05.209Z,101820.91
2023-04-29T17:13:32.121Z,101816.22
2023-04-29T17:15:59.118Z,101794.94
2023-04-29T17:18:25.993Z,101782.25
2023-04-29T17:20:52.648Z,101809.38
2023-04-29T17:23:19.641Z,101819.66
2023-04-29T17:25:46.619Z,101746.63
2023-04-29T17:28:13.215Z,101833.75
2023-04-29T17:30:39.794Z,101813.25
2023-04-29T17:33:06.479Z,101823.91
2023-04-29T17:35:33.858Z,101834.13
2023-04-29T17:38:00.792Z,101834.63
2023-04-29T17:40:27.650Z,101835.13
2023-04-29T17:42:54.308Z,101766.72
2023-04-29T17:45:20.962Z,101804.25
2023-04-29T17:47:48.493Z,101804.34
2023-04-29T17:50:15.300Z,101855.06
2023-04-29T17:52:42.844Z,101871.06
2023-04-29T17:55:10.197Z,101850.75
2023-04-29T17:57:38.299Z,101810.72
2023-04-29T18:00:07.531Z,101862.34
2023-04-29T18:02:34.712Z,101776.91
2023-04-29T18:05:03.310Z,101831.75
2023-04-29T18:07:29.981Z,101782.47
2023-04-29T18:09:58.925Z,101875.50
2023-04-29T18:12:25.745Z,101876.31
2023-04-29T18:14:52.451Z,101805.66
2023-04-29T18:17:19.525Z,101878.75
2023-04-29T18:19:50.082Z,101888.88
2023-04-29T18:22:16.947Z,101844.47
2023-04-29T18:24:43.856Z,101839.06
2023-04-29T18:27:10.670Z,101893.16
2023-04-29T18:29:37.289Z,101887.84
2023-04-29T18:32:06.407Z,101893.84
2023-04-29T18:34:34.544Z,101898.03
2023-04-29T18:37:01.956Z,101899.25
2023-04-29T18:39:28.752Z,101870.09
2023-04-29T18:41:55.516Z,101844.75
2023-04-29T18:44:22.232Z,101896.97
2023-04-29T18:46:48.847Z,101907.16
2023-04-29T18:49:17.144Z,101905.31
2023-04-29T18:51:47.000Z,101885.34
2023-04-29T18:54:18.032Z,101911.78
2023-04-29T18:56:47.149Z,101886.25
2023-04-29T18:59:19.590Z,101940.28
2023-04-29T19:01:48.067Z,101942.72
2023-04-29T19:04:15.340Z,101897.56
2023-04-29T19:06:42.772Z,101892.56
2023-04-29T19:09:09.594Z,101949.44
2023-04-29T19:11:36.387Z,101956.50
2023-04-29T19:14:04.302Z,101952.88
2023-04-29T19:16:30.950Z,101952.13
2023-04-29T19:18:57.789Z,101899.66
2023-04-29T19:21:24.586Z,101953.94
2023-04-29T19:23:51.261Z,101971.94
2023-04-29T19:26:18.313Z,101943.72
2023-04-29T19:28:45.523Z,101978.88
2023-04-29T19:31:12.404Z,101952.78
2023-04-29T19:33:38.989Z,101986.66
2023-04-29T19:36:05.662Z,101993.50
2023-04-29T19:38:32.389Z,101995.13
2023-04-29T19:40:59.108Z,101968.25
2023-04-29T19:43:25.658Z,101986.91
2023-04-29T19:45:52.257Z,101984.41
2023-04-29T19:48:20.071Z,101951.63
2023-04-29T19:50:46.682Z,101972.22
2023-04-29T19:53:13.316Z,102009.53
2023-04-29T19:55:44.939Z,101807.91
2023-04-29T19:58:11.804Z,102018.28
2023-04-29T20:00:38.487Z,102012.78
2023-04-29T20:03:05.172Z,101958.91
2023-04-29T20:05:31.769Z,102023.97
2023-04-29T20:07:58.525Z,102018.47
2023-04-29T20:10:26.827Z,101939.00
2023-04-29T20:12:55.643Z,102024.31
2023-04-29T20:15:22.207Z,102017.72
2023-04-29T20:17:48.910Z,102030.09
2023-04-29T20:20:15.678Z,102041.41
2023-04-29T20:22:42.325Z,102029.38
2023-04-29T20:25:09.147Z,102049.84
2023-04-29T20:27:36.041Z,102049.94
2023-04-29T20:30:03.016Z,102052.91
2023-04-29T20:32:29.825Z,102053.09
2023-04-29T20:34:56.460Z,101984.63
2023-04-29T20:37:23.409Z,102059.03
2023-04-29T20:39:50.088Z,102021.28
2023-04-29T20:42:17.204Z,102019.72
2023-04-29T20:44:44.265Z,102069.22
2023-04-29T20:47:10.990Z,102071.78
2023-04-29T20:49:37.794Z,101981.22
2023-04-29T20:52:06.554Z,102051.06
2023-04-29T20:54:33.990Z,102078.09
2023-04-29T20:57:01.105Z,102077.88
2023-04-29T20:59:28.012Z,102039.72
2023-04-29T21:01:54.751Z,102086.16
2023-04-29T21:04:21.366Z,102093.56
2023-04-29T21:06:47.972Z,102093.50
2023-04-29T21:09:14.609Z,102091.31
2023-04-29T21:11:41.231Z,102093.41
2023-04-29T21:14:07.953Z,102099.72
2023-04-29T21:16:35.372Z,102108.91
2023-04-29T21:19:02.150Z,102103.53
2023-04-29T21:21:28.840Z,102049.75
2023-04-29T21:23:55.375Z,102007.66
2023-04-29T21:26:22.476Z,102098.06
2023-04-29T21:28:49.422Z,102115.13
2023-04-29T21:31:16.679Z,102108.97
2023-04-29T21:33:44.455Z,102116.75
2023-04-29T21:36:11.818Z,102119.25
2023-04-29T21:38:38.531Z,102108.34
2023-04-29T21:41:05.931Z,102105.09
2023-04-29T21:43:33.486Z,102098.53
2023-04-29T21:46:00.658Z,102105.72
2023-04-29T21:48:27.651Z,102111.19
2023-04-29T21:50:54.220Z,102119.00
2023-04-29T21:53:21.063Z,102116.56
2023-04-29T21:55:48.067Z,102120.25
2023-04-29T21:58:18.682Z,102118.59
2023-04-29T22:00:58.154Z,102122.94
2023-04-29T22:03:25.187Z,102104.22
2023-04-29T22:05:51.868Z,102129.19
2023-04-29T22:08:18.566Z,102132.28
2023-04-29T22:10:45.192Z,102124.34
2023-04-29T22:13:11.936Z,102135.50
2023-04-29T22:15:38.755Z,102132.47
2023-04-29T22:18:05.820Z,102136.81
2023-04-29T22:20:32.788Z,102142.66
2023-04-29T22:22:59.792Z,102151.59
2023-04-29T22:25:26.389Z,102146.47
2023-04-29T22:27:53.110Z,102148.19
2023-04-29T22:30:20.889Z,102146.06
2023-04-29T22:32:47.566Z,102146.06
2023-04-29T22:35:14.245Z,102150.75
2023-04-29T22:37:44.096Z,102117.91
2023-04-29T22:40:12.089Z,102051.41
2023-04-29T22:42:39.804Z,102159.91
2023-04-29T22:45:07.126Z,102041.84
2023-04-29T22:47:33.711Z,102054.63
2023-04-29T22:50:00.543Z,102088.69
2023-04-29T22:52:27.669Z,102162.66
2023-04-29T22:54:54.234Z,102164.31
2023-04-29T22:57:20.974Z,102120.94
2023-04-29T22:59:48.017Z,102174.66
2023-04-29T23:02:14.864Z,102165.06
2023-04-29T23:04:41.401Z,102170.72
2023-04-29T23:07:08.017Z,102116.56
2023-04-29T23:09:34.588Z,102173.84
2023-04-29T23:12:02.511Z,102177.31
2023-04-29T23:14:29.692Z,102183.69
2023-04-29T23:16:56.432Z,102182.31
2023-04-29T23:19:26.938Z,102180.53
2023-04-29T23:21:53.508Z,102178.16
2023-04-29T23:24:20.053Z,102174.72
2023-04-29T23:26:46.729Z,102176.13
2023-04-29T23:29:13.307Z,102151.78
2023-04-29T23:31:39.951Z,102178.88
2023-04-29T23:34:07.988Z,102184.19
2023-04-29T23:36:34.646Z,102176.13
2023-04-29T23:39:01.285Z,102169.88
2023-04-29T23:41:28.108Z,102186.25
2023-04-29T23:43:54.985Z,102181.06
2023-04-29T23:46:21.597Z,102186.19
2023-04-29T23:48:48.260Z,102189.81
2023-04-29T23:51:14.850Z,102185.81
2023-04-29T23:53:41.426Z,102169.59
2023-04-29T23:56:08.097Z,102192.69
2023-04-29T23:58:34.674Z,102142.06
